Time;durP1;ratioP1;P1;durP2;ratioP2;P2;SDS_P1;SDS_P2;PMS_P1;PMS_P2;Temp;Humidity;BMP_temperature;BMP_pressure;BME280_temperature;BME280_humidity;BME280_pressure;Samples;Min_cycle;Max_cycle;Signal;HPM_P1;HPM_P2
2023/04/30 04:00:40;;;;;;;1.42;0.70;;;4.40;99.90;;;;;;5878861;23;20223;-71
2023/04/30 04:03:07;;;;;;;3.20;0.95;;;4.40;99.90;;;;;;5008571;28;20203;-72
2023/04/30 04:05:34;;;;;;;0.45;0.45;;;4.50;99.90;;;;;;5010786;28;20223;-72
2023/04/30 04:08:01;;;;;;;0.20;0.20;;;4.40;99.90;;;;;;5011116;28;20234;-72
2023/04/30 04:10:27;;;;;;;4.32;1.55;;;4.50;99.90;;;;;;5011074;28;20207;-73
2023/04/30 04:12:55;;;;;;;0.57;0.30;;;4.50;99.90;;;;;;5010783;28;20675;-73
2023/04/30 04:15:22;;;;;;;0.70;0.70;;;4.40;99.90;;;;;;5010151;28;20641;-73
2023/04/30 04:17:50;;;;;;;2.65;2.45;;;4.40;99.90;;;;;;5010562;28;20696;-72
2023/04/30 04:20:16;;;;;;;1.23;1.23;;;4.50;99.90;;;;;;5010564;28;20618;-72
2023/04/30 04:22:43;;;;;;;3.22;1.80;;;4.50;99.90;;;;;;5010836;28;20206;-72
2023/04/30 04:25:10;;;;;;;5.28;1.40;;;4.50;99.90;;;;;;5010586;28;20791;-74
2023/04/30 04:27:37;;;;;;;3.00;1.85;;;4.50;99.90;;;;;;5010846;28;20207;-75
2023/04/30 04:30:04;;;;;;;2.67;1.63;;;4.50;99.90;;;;;;5011250;28;20238;-74
2023/04/30 04:32:31;;;;;;;1.02;1.02;;;4.50;99.90;;;;;;5010943;28;20223;-74
2023/04/30 04:35:00;;;;;;;0.73;0.60;;;4.50;99.90;;;;;;5010683;28;20580;-75
2023/04/30 04:37:26;;;;;;;0.60;0.60;;;4.60;99.90;;;;;;5010757;28;20207;-74
2023/04/30 04:39:53;;;;;;;1.15;1.15;;;4.70;99.90;;;;;;5010762;28;20230;-73
2023/04/30 04:42:20;;;;;;;1.20;1.10;;;5.10;99.90;;;;;;5010294;28;20234;-73
2023/04/30 04:44:46;;;;;;;5.57;2.20;;;5.60;99.90;;;;;;5010450;28;20644;-73
2023/04/30 04:47:13;;;;;;;3.67;2.40;;;6.20;99.90;;;;;;5010844;28;20238;-75
2023/04/30 04:49:40;;;;;;;1.90;1.60;;;6.70;99.90;;;;;;5010525;28;20218;-73
2023/04/30 04:52:08;;;;;;;6.50;1.67;;;7.10;99.90;;;;;;5010697;28;20245;-74
2023/04/30 04:54:35;;;;;;;1.67;1.58;;;7.50;99.90;;;;;;5010044;28;20211;-75
2023/04/30 04:57:02;;;;;;;0.73;0.73;;;7.70;99.90;;;;;;5010692;28;20214;-75
2023/04/30 04:59:29;;;;;;;1.25;1.20;;;7.90;99.90;;;;;;5010949;28;20210;-74
2023/04/30 05:01:56;;;;;;;1.48;1.48;;;7.90;99.90;;;;;;5009985;28;20630;-72
2023/04/30 05:04:22;;;;;;;2.22;1.40;;;7.90;99.90;;;;;;5010041;28;20288;-73
2023/04/30 05:06:49;;;;;;;1.05;1.05;;;7.80;99.90;;;;;;5010967;28;20226;-74
2023/04/30 05:09:17;;;;;;;2.25;0.90;;;7.80;99.90;;;;;;5010763;28;20621;-73
2023/04/30 05:11:45;;;;;;;3.45;1.52;;;7.70;99.90;;;;;;5010353;28;20238;-73
2023/04/30 05:14:11;;;;;;;1.80;1.15;;;7.70;99.90;;;;;;5009920;28;20222;-73
2023/04/30 05:16:38;;;;;;;1.92;1.48;;;7.50;99.90;;;;;;5009793;28;20202;-73
2023/04/30 05:19:05;;;;;;;1.50;0.98;;;7.40;99.90;;;;;;5010701;28;20575;-73
2023/04/30 05:21:32;;;;;;;2.33;2.13;;;7.30;99.90;;;;;;5010474;28;20286;-73
2023/04/30 05:23:59;;;;;;;1.50;0.93;;;7.30;99.90;;;;;;5009871;28;20218;-73
2023/04/30 05:26:27;;;;;;;2.47;1.77;;;7.20;99.90;;;;;;5012077;28;20234;-74
2023/04/30 05:28:54;;;;;;;1.15;1.15;;;7.20;99.90;;;;;;5013947;28;20226;-74
2023/04/30 05:31:21;;;;;;;0.77;0.77;;;7.30;99.90;;;;;;5013553;28;20224;-74
2023/04/30 05:33:47;;;;;;;2.05;1.52;;;7.40;99.90;;;;;;5013609;28;20214;-73
2023/04/30 05:36:14;;;;;;;1.17;1.17;;;7.30;99.90;;;;;;5013450;28;20207;-74
2023/04/30 05:38:41;;;;;;;1.33;1.23;;;7.30;99.90;;;;;;5013618;28;20222;-74
2023/04/30 05:41:09;;;;;;;6.95;1.50;;;7.40;99.90;;;;;;5013721;28;20223;-74
2023/04/30 05:43:37;;;;;;;0.60;0.60;;;7.30;99.90;;;;;;5013617;28;20357;-74
2023/04/30 05:46:05;;;;;;;0.85;0.80;;;7.30;99.90;;;;;;5013470;28;20231;-73
2023/04/30 05:48:31;;;;;;;1.15;1.15;;;7.30;99.90;;;;;;5013808;28;20203;-73
2023/04/30 05:50:58;;;;;;;1.35;0.85;;;7.20;99.90;;;;;;5012930;28;20230;-73
2023/04/30 05:53:25;;;;;;;2.50;1.25;;;7.30;99.90;;;;;;5013443;28;20211;-74
2023/04/30 05:55:52;;;;;;;1.65;1.55;;;7.40;99.90;;;;;;5013419;28;20210;-73
2023/04/30 05:58:18;;;;;;;1.17;1.15;;;7.40;99.90;;;;;;5013510;28;20686;-74
2023/04/30 06:00:49;;;;;;;1.42;1.38;;;7.50;99.90;;;;;;5013028;28;20227;-74
2023/04/30 06:03:15;;;;;;;1.75;1.33;;;7.70;99.90;;;;;;5012835;28;20577;-74
2023/04/30 06:05:43;;;;;;;2.50;1.67;;;8.00;99.90;;;;;;5012886;28;20214;-74
2023/04/30 06:08:09;;;;;;;1.73;1.63;;;8.50;99.90;;;;;;5013455;28;20345;-74
2023/04/30 06:10:36;;;;;;;1.40;1.30;;;9.30;99.90;;;;;;5013223;28;20230;-74
2023/04/30 06:13:03;;;;;;;2.20;1.47;;;10.10;99.90;;;;;;5013356;28;20969;-74
2023/04/30 06:15:30;;;;;;;1.50;1.40;;;11.00;99.90;;;;;;5012357;28;20465;-72
2023/04/30 06:17:58;;;;;;;1.97;1.60;;;11.80;99.90;;;;;;5012896;28;20837;-74
2023/04/30 06:20:26;;;;;;;1.20;1.03;;;12.40;99.90;;;;;;5012432;28;20465;-72
2023/04/30 06:22:52;;;;;;;1.40;0.93;;;13.00;99.90;;;;;;5009704;28;20560;-73
2023/04/30 06:25:20;;;;;;;0.87;0.87;;;13.60;99.90;;;;;;5010391;28;20592;-73
2023/04/30 06:27:46;;;;;;;1.50;0.73;;;13.80;99.90;;;;;;5012508;28;21022;-72
2023/04/30 06:30:13;;;;;;;2.10;0.93;;;14.10;99.90;;;;;;5009255;28;20473;-73
2023/04/30 06:32:40;;;;;;;1.27;1.17;;;14.40;99.90;;;;;;5007393;28;20489;-72
2023/04/30 06:35:09;;;;;;;0.90;0.70;;;14.50;99.90;;;;;;5011235;28;20797;-73
2023/04/30 06:37:36;;;;;;;4.07;3.87;;;14.80;99.90;;;;;;5009845;28;20471;-72
2023/04/30 06:40:04;;;;;;;1.50;0.67;;;15.10;99.90;;;;;;5011156;28;20480;-73
2023/04/30 06:42:33;;;;;;;1.43;1.37;;;15.40;99.90;;;;;;5007400;28;20489;-73
2023/04/30 06:45:00;;;;;;;1.53;1.00;;;15.60;99.30;;;;;;5010904;28;20483;-73
2023/04/30 06:47:27;;;;;;;1.03;1.03;;;15.80;97.90;;;;;;5002172;28;21004;-72
2023/04/30 06:49:54;;;;;;;1.03;0.93;;;15.80;97.10;;;;;;5010476;28;20473;-72
2023/04/30 06:52:22;;;;;;;1.90;1.07;;;16.10;97.20;;;;;;5012182;28;20844;-72
2023/04/30 06:54:49;;;;;;;1.23;0.87;;;16.30;97.30;;;;;;5010695;28;20473;-72
2023/04/30 06:57:15;;;;;;;0.60;0.60;;;16.30;97.00;;;;;;5011580;28;20949;-72
2023/04/30 06:59:43;;;;;;;0.93;0.80;;;16.60;96.50;;;;;;5011186;28;20574;-74
2023/04/30 07:02:09;;;;;;;1.27;1.27;;;16.60;95.60;;;;;;5010454;28;20493;-73
2023/04/30 07:04:36;;;;;;;1.10;1.10;;;16.30;94.50;;;;;;5010386;28;20464;-73
2023/04/30 07:07:03;;;;;;;1.23;1.10;;;15.80;94.80;;;;;;5011968;28;20815;-72
2023/04/30 07:09:31;;;;;;;0.70;0.70;;;15.40;95.10;;;;;;5005128;28;20474;-73
2023/04/30 07:11:58;;;;;;;1.00;0.90;;;15.40;95.40;;;;;;5003025;28;20490;-72
2023/04/30 07:14:25;;;;;;;0.93;0.93;;;15.60;94.70;;;;;;5010913;28;20458;-73
2023/04/30 07:16:52;;;;;;;1.17;1.03;;;14.70;94.30;;;;;;5003077;28;20467;-73
2023/04/30 07:19:19;;;;;;;1.27;1.17;;;14.70;95.90;;;;;;5011436;28;20458;-73
2023/04/30 07:21:46;;;;;;;1.37;1.27;;;15.10;96.00;;;;;;5007062;28;20482;-73
2023/04/30 07:24:12;;;;;;;1.20;1.10;;;15.40;96.00;;;;;;5009860;28;20462;-73
2023/04/30 07:26:41;;;;;;;2.00;0.50;;;15.40;94.90;;;;;;5009202;28;20604;-73
2023/04/30 07:29:08;;;;;;;1.13;1.13;;;15.20;94.60;;;;;;5011466;28;20469;-74
2023/04/30 07:31:34;;;;;;;1.13;1.13;;;14.90;95.00;;;;;;5009767;28;20489;-73
2023/04/30 07:34:01;;;;;;;1.57;0.63;;;14.70;95.40;;;;;;5011401;28;20462;-73
2023/04/30 07:36:28;;;;;;;0.67;0.67;;;14.20;95.90;;;;;;5011255;28;20458;-74
2023/04/30 07:38:55;;;;;;;1.70;1.20;;;14.10;96.10;;;;;;5010257;28;20500;-73
2023/04/30 07:41:21;;;;;;;1.27;1.27;;;13.80;96.00;;;;;;5008838;28;20490;-75
2023/04/30 07:43:49;;;;;;;0.83;0.83;;;13.60;96.40;;;;;;5009693;28;20465;-74
2023/04/30 07:46:16;;;;;;;2.97;0.90;;;13.30;96.90;;;;;;5004690;28;20992;-73
2023/04/30 07:48:43;;;;;;;1.30;1.30;;;13.30;96.70;;;;;;5010822;28;20469;-73
2023/04/30 07:51:10;;;;;;;0.80;0.80;;;13.10;96.90;;;;;;5008799;28;20493;-73
2023/04/30 07:53:38;;;;;;;1.60;0.93;;;12.90;97.30;;;;;;5008476;28;20470;-74
2023/04/30 07:56:07;;;;;;;9.73;1.80;;;12.50;97.90;;;;;;5011160;28;20465;-73
2023/04/30 07:58:33;;;;;;;2.00;1.13;;;12.20;98.70;;;;;;5011632;28;20508;-74
2023/04/30 08:01:02;;;;;;;1.90;1.13;;;12.20;98.60;;;;;;5005508;28;20542;-73
2023/04/30 08:03:29;;;;;;;1.00;1.00;;;12.20;99.20;;;;;;5008906;28;20552;-71
2023/04/30 08:05:56;;;;;;;0.83;0.60;;;12.10;99.10;;;;;;5010535;28;20947;-71
2023/04/30 08:08:22;;;;;;;1.23;1.23;;;11.90;98.50;;;;;;5006528;28;20486;-72
2023/04/30 08:10:49;;;;;;;1.43;1.43;;;12.10;99.00;;;;;;5007779;28;20227;-71
2023/04/30 08:13:16;;;;;;;0.40;0.40;;;12.10;99.70;;;;;;5004942;28;20467;-71
2023/04/30 08:15:43;;;;;;;1.48;1.48;;;11.70;99.90;;;;;;5010141;28;20557;-71
2023/04/30 08:18:11;;;;;;;1.10;1.07;;;11.50;99.90;;;;;;5004427;28;20207;-71
2023/04/30 08:20:37;;;;;;;9.48;2.25;;;11.50;99.90;;;;;;5009499;28;20496;-71
2023/04/30 08:23:05;;;;;;;1.75;1.55;;;11.40;99.90;;;;;;5008068;28;20206;-71
2023/04/30 08:25:32;;;;;;;1.50;1.40;;;11.40;99.90;;;;;;5009381;28;20203;-71
2023/04/30 08:27:59;;;;;;;3.43;1.70;;;11.30;99.90;;;;;;5008288;28;21159;-71
2023/04/30 08:30:25;;;;;;;2.42;1.20;;;11.20;99.90;;;;;;5008232;28;20474;-71
2023/04/30 08:32:52;;;;;;;4.40;1.73;;;11.10;99.90;;;;;;4999925;28;20543;-71
2023/04/30 08:35:22;;;;;;;3.78;1.20;;;10.90;99.90;;;;;;5010232;28;20231;-71
2023/04/30 08:37:49;;;;;;;0.98;0.98;;;11.00;99.90;;;;;;5007755;28;20211;-71
2023/04/30 08:40:15;;;;;;;2.55;1.52;;;11.20;99.90;;;;;;5011100;28;20233;-71
2023/04/30 08:42:59;;;;;;;1.20;1.10;;;11.30;99.90;;;;;;5008873;28;20580;-71
2023/04/30 08:45:27;;;;;;;1.42;1.42;;;11.40;99.90;;;;;;5009981;28;20199;-71
2023/04/30 08:47:56;;;;;;;4.03;1.10;;;11.30;99.90;;;;;;5008996;28;20219;-71
2023/04/30 08:50:24;;;;;;;1.90;1.55;;;11.20;99.90;;;;;;5009393;28;20261;-71
2023/04/30 08:52:50;;;;;;;1.67;1.67;;;11.30;99.90;;;;;;5006535;28;20218;-71
2023/04/30 08:55:17;;;;;;;2.22;2.05;;;11.20;99.90;;;;;;5010283;28;20211;-72
2023/04/30 08:57:44;;;;;;;1.33;1.23;;;11.20;99.90;;;;;;5001471;28;20584;-71
2023/04/30 09:00:12;;;;;;;11.73;2.60;;;11.20;99.90;;;;;;5009696;28;20207;-71
2023/04/30 09:02:40;;;;;;;1.48;1.38;;;11.10;99.90;;;;;;5006357;28;20214;-71
2023/04/30 09:05:10;;;;;;;1.63;1.63;;;11.00;99.90;;;;;;5012039;28;20212;-71
2023/04/30 09:07:40;;;;;;;4.10;2.97;;;10.90;99.90;;;;;;5011182;28;20256;-71
2023/04/30 09:10:15;;;;;;;7.07;1.95;;;10.90;99.90;;;;;;5011658;28;20237;-71
2023/04/30 09:12:44;;;;;;;3.88;1.67;;;11.00;99.90;;;;;;5015565;28;20211;-71
2023/04/30 09:15:12;;;;;;;4.57;0.98;;;11.10;99.90;;;;;;5014803;28;20669;-72
2023/04/30 09:17:39;;;;;;;1.63;1.63;;;11.10;99.90;;;;;;5019972;28;20195;-72
2023/04/30 09:20:10;;;;;;;7.95;2.13;;;11.00;99.90;;;;;;5035041;28;20210;-72
2023/04/30 09:22:39;;;;;;;2.20;2.00;;;11.10;99.90;;;;;;5036574;28;20227;-71
2023/04/30 09:25:07;;;;;;;1.55;1.48;;;11.10;99.90;;;;;;5036284;28;20218;-72
2023/04/30 09:27:34;;;;;;;1.10;1.00;;;11.10;99.90;;;;;;5037879;28;20219;-71
2023/04/30 09:30:01;;;;;;;1.88;1.77;;;11.20;99.90;;;;;;5037978;28;20194;-71
2023/04/30 09:32:28;;;;;;;3.45;1.67;;;11.20;99.90;;;;;;5037378;28;20246;-71
2023/04/30 09:34:55;;;;;;;1.15;1.15;;;11.20;99.90;;;;;;5029421;28;20229;-71
2023/04/30 09:37:22;;;;;;;1.20;1.20;;;11.10;99.90;;;;;;5031955;28;20199;-72
2023/04/30 09:39:53;;;;;;;18.48;1.70;;;11.10;99.90;;;;;;5017055;28;20203;-72
2023/04/30 09:42:20;;;;;;;6.35;2.63;;;11.20;99.90;;;;;;5012351;28;20226;-72
2023/04/30 09:44:48;;;;;;;2.67;2.30;;;11.30;99.90;;;;;;5014028;28;20214;-72
2023/04/30 09:47:16;;;;;;;2.30;2.10;;;11.40;99.90;;;;;;5009417;28;20220;-71
2023/04/30 09:49:44;;;;;;;9.07;1.45;;;11.30;99.90;;;;;;5013005;28;20211;-71
2023/04/30 09:52:12;;;;;;;5.63;2.35;;;11.30;99.90;;;;;;5013761;28;20215;-71
2023/04/30 09:54:40;;;;;;;5.30;1.65;;;11.30;99.90;;;;;;5013897;28;20878;-71
2023/04/30 09:57:11;;;;;;;0.88;0.88;;;11.30;99.90;;;;;;5013924;28;20206;-70
2023/04/30 09:59:39;;;;;;;2.55;2.35;;;11.40;99.90;;;;;;5007948;28;20204;-70
2023/04/30 10:02:07;;;;;;;1.00;0.90;;;11.30;99.90;;;;;;5007005;28;20240;-71
2023/04/30 10:04:36;;;;;;;2.05;1.33;;;11.40;99.90;;;;;;5009123;28;20269;-72
2023/04/30 10:07:06;;;;;;;4.95;1.50;;;11.30;99.90;;;;;;5007116;28;20277;-72
2023/04/30 10:09:40;;;;;;;4.63;1.25;;;11.40;99.90;;;;;;5009066;28;20207;-70
2023/04/30 10:12:13;;;;;;;0.70;0.70;;;11.50;99.90;;;;;;5006269;28;20230;-70
2023/04/30 10:14:44;;;;;;;2.70;1.80;;;11.50;99.90;;;;;;5011356;28;20211;-71
2023/04/30 10:17:14;;;;;;;16.33;1.73;;;11.50;99.90;;;;;;5011256;28;20203;-69
2023/04/30 10:19:46;;;;;;;1.75;1.65;;;11.60;99.90;;;;;;5007816;28;20223;-75
2023/04/30 10:22:13;;;;;;;2.10;1.83;;;11.60;99.90;;;;;;5012446;28;20303;-75
2023/04/30 10:24:41;;;;;;;1.25;1.15;;;11.60;99.90;;;;;;5005906;28;20208;-76
2023/04/30 10:27:09;;;;;;;2.08;1.33;;;11.60;99.90;;;;;;5008666;28;20258;-73
2023/04/30 10:29:36;;;;;;;0.70;0.70;;;11.70;99.90;;;;;;5012880;28;20215;-72
2023/04/30 10:32:04;;;;;;;0.95;0.95;;;11.70;99.90;;;;;;5012324;28;20231;-73
2023/04/30 10:34:46;;;;;;;9.82;0.98;;;11.70;99.10;;;;;;5011907;28;20257;-73
2023/04/30 10:37:21;;;;;;;0.75;0.75;;;11.80;99.80;;;;;;5012922;28;20213;-73
2023/04/30 10:39:48;;;;;;;1.67;1.58;;;11.70;99.40;;;;;;5013092;28;20351;-73
2023/04/30 10:42:16;;;;;;;5.05;1.55;;;11.70;99.70;;;;;;5012947;28;20231;-73
2023/04/30 10:44:43;;;;;;;1.00;1.00;;;11.60;99.40;;;;;;5012146;28;20214;-73
2023/04/30 10:47:09;;;;;;;4.43;1.10;;;11.70;99.90;;;;;;5012290;28;20214;-73
2023/04/30 10:49:36;;;;;;;2.38;1.48;;;11.70;99.30;;;;;;5012444;28;20215;-73
2023/04/30 10:52:04;;;;;;;0.73;0.70;;;11.70;99.20;;;;;;5012505;28;20223;-73
2023/04/30 10:54:33;;;;;;;0.70;0.70;;;11.80;99.90;;;;;;5011965;28;20203;-73
2023/04/30 10:57:11;;;;;;;2.90;1.08;;;11.70;99.30;;;;;;5012109;28;20207;-73
2023/04/30 10:59:45;;;;;;;7.82;1.42;;;11.80;98.90;;;;;;5014233;28;20253;-72
2023/04/30 11:02:12;;;;;;;2.47;1.33;;;11.90;99.60;;;;;;5014439;28;20235;-72
2023/04/30 11:05:10;;;;;;;1.02;1.02;;;11.90;98.80;;;;;;5016785;28;20218;-72
2023/04/30 11:07:37;;;;;;;1.58;1.25;;;12.00;98.00;;;;;;5019216;28;20223;-74
2023/04/30 11:10:07;;;;;;;2.20;2.08;;;12.00;99.00;;;;;;5015667;28;20223;-72
2023/04/30 11:12:34;;;;;;;1.40;1.40;;;11.90;99.00;;;;;;5019096;28;20233;-73
2023/04/30 11:15:12;;;;;;;0.93;0.93;;;12.00;99.90;;;;;;5021054;28;20279;-72
2023/04/30 11:17:38;;;;;;;2.35;1.58;;;12.10;99.30;;;;;;5016523;28;20206;-72
2023/04/30 11:20:07;;;;;;;1.38;1.15;;;12.00;98.90;;;;;;5019225;28;20222;-74
2023/04/30 11:22:35;;;;;;;1.08;1.08;;;12.10;98.80;;;;;;5027428;28;20231;-73
2023/04/30 11:25:08;;;;;;;2.47;1.52;;;12.10;97.90;;;;;;5030970;28;20191;-76
2023/04/30 11:27:36;;;;;;;2.25;1.65;;;12.10;97.70;;;;;;5035289;28;20272;-73
2023/04/30 11:30:12;;;;;;;3.22;1.15;;;12.10;97.10;;;;;;5035643;28;20195;-75
2023/04/30 11:32:39;;;;;;;4.32;2.55;;;12.30;97.90;;;;;;5035635;28;20265;-76
2023/04/30 11:35:07;;;;;;;1.57;1.57;;;12.40;98.70;;;;;;5035168;28;20228;-76
2023/04/30 11:37:36;;;;;;;0.95;0.95;;;12.30;97.80;;;;;;5035831;28;20458;-76
2023/04/30 11:40:06;;;;;;;1.73;1.63;;;12.40;97.70;;;;;;5035843;28;20258;-77
2023/04/30 11:42:34;;;;;;;1.27;1.27;;;12.40;96.30;;;;;;5035897;28;20478;-76
2023/04/30 11:45:08;;;;;;;1.10;1.00;;;12.30;95.90;;;;;;5035607;28;20442;-76
2023/04/30 11:47:45;;;;;;;1.30;1.05;;;12.30;96.10;;;;;;5035787;28;20466;-76
2023/04/30 11:50:13;;;;;;;1.93;1.73;;;12.30;96.00;;;;;;5035079;28;20269;-77
2023/04/30 11:52:40;;;;;;;2.83;1.90;;;12.40;95.40;;;;;;5035368;28;20477;-77
2023/04/30 11:55:12;;;;;;;1.50;1.50;;;12.60;96.40;;;;;;5034946;28;20533;-73
2023/04/30 11:57:43;;;;;;;1.60;1.20;;;12.60;96.30;;;;;;5013188;28;20520;-73
2023/04/30 12:00:15;;;;;;;1.20;1.10;;;12.60;96.70;;;;;;5011608;28;20462;-72
2023/04/30 12:02:44;;;;;;;1.37;1.33;;;12.60;96.70;;;;;;5010423;28;20462;-73
2023/04/30 12:05:15;;;;;;;4.53;1.60;;;12.70;96.70;;;;;;5010482;28;20466;-73
2023/04/30 12:07:49;;;;;;;2.30;1.13;;;12.80;96.50;;;;;;5011441;28;20590;-73
2023/04/30 12:10:18;;;;;;;1.43;1.43;;;12.80;96.20;;;;;;5010999;28;20473;-72
2023/04/30 12:12:45;;;;;;;1.20;1.20;;;12.80;96.30;;;;;;5011277;28;20476;-73
2023/04/30 12:15:16;;;;;;;1.10;1.00;;;12.90;95.40;;;;;;5010661;28;20462;-74
2023/04/30 12:17:43;;;;;;;2.07;1.83;;;12.90;95.00;;;;;;5012196;28;20489;-75
2023/04/30 12:20:11;;;;;;;1.00;1.00;;;12.90;95.50;;;;;;5010855;28;20461;-74
2023/04/30 12:22:38;;;;;;;1.37;1.37;;;12.90;95.40;;;;;;5011007;28;20492;-73
2023/04/30 12:25:12;;;;;;;3.50;1.10;;;12.90;95.40;;;;;;5010354;28;20466;-73
2023/04/30 12:27:40;;;;;;;1.17;1.07;;;13.00;95.00;;;;;;5010868;28;20989;-74
2023/04/30 12:30:08;;;;;;;1.53;1.00;;;13.00;94.90;;;;;;5010713;28;20466;-75
2023/04/30 12:32:41;;;;;;;1.30;1.20;;;13.10;95.40;;;;;;5010343;28;20482;-75
2023/04/30 12:35:09;;;;;;;1.20;1.17;;;13.20;95.70;;;;;;5009587;28;20469;-75
2023/04/30 12:37:35;;;;;;;1.97;1.87;;;13.30;95.70;;;;;;5010445;28;20469;-73
2023/04/30 12:40:03;;;;;;;1.53;1.53;;;13.20;94.70;;;;;;5011022;28;20458;-73
2023/04/30 12:42:34;;;;;;;1.70;1.40;;;13.20;94.60;;;;;;5010673;28;21016;-74
2023/04/30 12:45:01;;;;;;;1.07;0.97;;;13.20;94.90;;;;;;5010398;28;20561;-75
2023/04/30 12:47:29;;;;;;;1.10;1.10;;;13.30;95.40;;;;;;5010334;28;20549;-74
2023/04/30 12:49:57;;;;;;;4.13;1.23;;;13.40;95.10;;;;;;5010078;28;20489;-74
2023/04/30 12:52:26;;;;;;;1.10;1.00;;;13.40;95.10;;;;;;5010871;28;20824;-73
2023/04/30 12:54:53;;;;;;;2.40;1.63;;;13.30;94.10;;;;;;5010369;28;20462;-73
2023/04/30 12:57:20;;;;;;;3.23;1.17;;;13.40;95.00;;;;;;5010630;28;20562;-74
2023/04/30 13:00:00;;;;;;;0.67;0.67;;;13.50;94.80;;;;;;5010761;28;20473;-73
2023/04/30 13:02:30;;;;;;;4.73;1.13;;;13.50;94.30;;;;;;5010552;28;20497;-73
2023/04/30 13:04:59;;;;;;;1.60;1.50;;;13.50;94.10;;;;;;5009473;28;20485;-74
2023/04/30 13:07:25;;;;;;;1.40;1.30;;;13.50;93.60;;;;;;5010621;28;20565;-72
2023/04/30 13:09:52;;;;;;;0.70;0.70;;;13.50;92.90;;;;;;5010396;28;20497;-72
2023/04/30 13:12:19;;;;;;;1.90;1.80;;;13.50;93.40;;;;;;5010548;28;20482;-72
2023/04/30 13:14:46;;;;;;;1.10;1.10;;;13.40;93.10;;;;;;5009934;28;20469;-74
2023/04/30 13:17:12;;;;;;;2.00;1.80;;;13.50;93.70;;;;;;5010162;28;20462;-73
2023/04/30 13:19:39;;;;;;;1.07;0.93;;;13.60;93.70;;;;;;5010114;28;20465;-73
2023/04/30 13:22:07;;;;;;;0.83;0.83;;;13.50;93.10;;;;;;5010497;28;20504;-74
2023/04/30 13:24:34;;;;;;;1.00;1.00;;;13.60;92.90;;;;;;5009894;28;20548;-73
2023/04/30 13:27:01;;;;;;;4.43;1.17;;;13.60;91.90;;;;;;5031632;28;20522;-75
2023/04/30 13:29:28;;;;;;;0.80;0.80;;;13.50;91.20;;;;;;5031715;28;20482;-72
2023/04/30 13:31:55;;;;;;;5.33;2.80;;;13.50;91.40;;;;;;5014711;28;20492;-73
2023/04/30 13:34:22;;;;;;;1.03;0.83;;;13.70;90.80;;;;;;5009630;28;20462;-73
2023/04/30 13:36:48;;;;;;;0.97;0.97;;;13.70;90.30;;;;;;5010226;28;20556;-74
2023/04/30 13:39:16;;;;;;;1.63;0.77;;;13.70;89.30;;;;;;5010165;28;20985;-73
2023/04/30 13:41:43;;;;;;;2.93;1.77;;;13.80;90.60;;;;;;5010066;28;20495;-73
2023/04/30 13:44:11;;;;;;;2.43;1.50;;;13.80;90.50;;;;;;5009372;28;20462;-74
2023/04/30 13:46:38;;;;;;;0.80;0.80;;;13.80;89.70;;;;;;5009692;28;20839;-72
2023/04/30 13:49:05;;;;;;;0.80;0.80;;;13.80;91.10;;;;;;5012774;28;20496;-75
2023/04/30 13:51:31;;;;;;;1.00;1.00;;;13.90;91.90;;;;;;5012798;28;20492;-73
2023/04/30 13:53:58;;;;;;;1.67;1.10;;;13.90;91.00;;;;;;5013068;28;20790;-73
2023/04/30 13:56:26;;;;;;;1.20;1.20;;;13.90;91.50;;;;;;5013254;28;20461;-74
2023/04/30 13:58:53;;;;;;;1.60;1.50;;;13.90;90.90;;;;;;5013341;28;20469;-74
2023/04/30 14:01:20;;;;;;;1.10;1.10;;;13.90;90.70;;;;;;5012426;28;20494;-73
2023/04/30 14:03:47;;;;;;;2.03;1.03;;;13.80;90.10;;;;;;5012726;28;20465;-74
2023/04/30 14:06:13;;;;;;;0.80;0.80;;;13.90;90.70;;;;;;5012754;28;20565;-73
2023/04/30 14:08:40;;;;;;;1.53;1.43;;;14.10;91.70;;;;;;5013170;28;20492;-73
2023/04/30 14:11:07;;;;;;;1.40;1.40;;;14.20;90.20;;;;;;5012895;28;20482;-73
2023/04/30 14:13:35;;;;;;;2.10;1.20;;;14.10;90.80;;;;;;5012692;28;20473;-73
2023/04/30 14:16:02;;;;;;;1.33;1.23;;;14.20;88.80;;;;;;5012838;28;20465;-73
2023/04/30 14:18:29;;;;;;;1.60;0.93;;;14.20;89.80;;;;;;5013186;28;20464;-73
2023/04/30 14:20:55;;;;;;;0.93;0.93;;;14.20;85.00;;;;;;5012401;28;20496;-73
2023/04/30 14:23:22;;;;;;;1.20;1.10;;;14.10;84.90;;;;;;5012580;28;20462;-73
2023/04/30 14:25:49;;;;;;;1.47;1.47;;;14.20;85.90;;;;;;5012756;28;20462;-72
2023/04/30 14:28:15;;;;;;;1.80;0.67;;;14.20;88.80;;;;;;5012874;28;20461;-74
2023/04/30 14:30:44;;;;;;;3.00;1.30;;;14.20;89.40;;;;;;5012869;28;20947;-73
2023/04/30 14:33:11;;;;;;;2.93;0.93;;;14.30;90.80;;;;;;5012393;28;20828;-73
2023/04/30 14:35:38;;;;;;;1.50;1.33;;;14.20;90.10;;;;;;5012002;28;20556;-75
2023/04/30 14:38:05;;;;;;;1.90;0.67;;;14.20;89.30;;;;;;5012561;28;20462;-73
2023/04/30 14:40:31;;;;;;;1.07;1.07;;;14.30;90.40;;;;;;5012631;28;20831;-73
2023/04/30 14:42:58;;;;;;;0.80;0.80;;;14.30;90.60;;;;;;5012484;28;20458;-74
2023/04/30 14:45:27;;;;;;;1.33;1.30;;;14.40;91.00;;;;;;5012163;28;20793;-73
2023/04/30 14:47:55;;;;;;;3.20;3.00;;;14.40;90.10;;;;;;5012213;28;20461;-73
2023/04/30 14:50:22;;;;;;;1.30;1.30;;;14.40;90.20;;;;;;5011963;28;20581;-73
2023/04/30 14:52:49;;;;;;;1.23;1.23;;;14.40;89.70;;;;;;5012155;28;20473;-73
2023/04/30 14:55:16;;;;;;;0.70;0.70;;;14.40;88.40;;;;;;5012122;28;20466;-73
2023/04/30 14:57:43;;;;;;;0.50;0.50;;;14.40;87.90;;;;;;5012413;28;20462;-73
2023/04/30 15:00:11;;;;;;;1.23;0.80;;;14.40;88.40;;;;;;5012070;28;20481;-72
2023/04/30 15:02:37;;;;;;;1.70;1.20;;;14.40;88.40;;;;;;5011813;28;20572;-72
2023/04/30 15:05:07;;;;;;;3.90;1.33;;;14.30;86.10;;;;;;5011354;28;20576;-73
2023/04/30 15:07:35;;;;;;;1.00;1.00;;;14.30;88.50;;;;;;5011925;28;20468;-72
2023/04/30 15:10:02;;;;;;;0.93;0.90;;;14.40;88.80;;;;;;5011965;28;21025;-72
2023/04/30 15:12:29;;;;;;;1.77;1.70;;;14.50;89.10;;;;;;5011658;28;20486;-73
2023/04/30 15:14:55;;;;;;;3.20;0.80;;;14.60;87.70;;;;;;5011454;28;20468;-72
2023/04/30 15:17:22;;;;;;;5.90;1.17;;;14.60;85.00;;;;;;5011538;28;20460;-73
2023/04/30 15:19:49;;;;;;;0.97;0.97;;;14.60;85.80;;;;;;5011367;28;20462;-74
2023/04/30 15:22:17;;;;;;;1.60;1.50;;;14.70;86.20;;;;;;5012196;28;20993;-74
2023/04/30 15:24:44;;;;;;;1.00;0.80;;;14.90;86.80;;;;;;5011230;28;20867;-73
2023/04/30 15:27:11;;;;;;;6.70;0.87;;;14.90;87.00;;;;;;5011766;28;20458;-72
2023/04/30 15:29:39;;;;;;;1.07;1.07;;;15.00;84.80;;;;;;5011642;28;20518;-73
2023/04/30 15:32:06;;;;;;;1.50;0.80;;;15.10;84.40;;;;;;5011119;28;20482;-72
2023/04/30 15:34:32;;;;;;;1.60;1.10;;;15.10;82.60;;;;;;5010556;28;20492;-73
2023/04/30 15:36:59;;;;;;;1.00;1.00;;;15.20;81.20;;;;;;5011532;28;20473;-74
2023/04/30 15:39:27;;;;;;;0.93;0.93;;;15.20;80.90;;;;;;5011881;28;20457;-73
2023/04/30 15:41:54;;;;;;;0.70;0.70;;;15.30;83.10;;;;;;5011301;28;20501;-73
2023/04/30 15:44:21;;;;;;;2.53;1.30;;;15.30;83.40;;;;;;5010809;28;20950;-72
2023/04/30 15:46:48;;;;;;;2.97;1.37;;;15.30;83.90;;;;;;5010845;28;20473;-75
2023/04/30 15:49:15;;;;;;;1.67;0.83;;;15.40;84.00;;;;;;5010808;28;20492;-73
2023/04/30 15:51:43;;;;;;;7.73;1.10;;;15.40;83.20;;;;;;5011322;28;20517;-73
2023/04/30 15:54:12;;;;;;;5.40;1.07;;;15.40;83.10;;;;;;5010930;28;20466;-72
2023/04/30 15:56:40;;;;;;;1.17;1.17;;;15.30;84.80;;;;;;5010865;28;20474;-73
2023/04/30 15:59:07;;;;;;;0.50;0.50;;;15.30;86.50;;;;;;5011467;28;20461;-72
2023/04/30 16:01:34;;;;;;;2.40;0.93;;;15.20;84.70;;;;;;5009274;28;20490;-72
2023/04/30 16:04:00;;;;;;;0.97;0.97;;;15.20;85.20;;;;;;5010784;28;20469;-73
2023/04/30 16:06:30;;;;;;;0.93;0.50;;;15.20;85.00;;;;;;5010589;28;20469;-72
2023/04/30 16:08:58;;;;;;;0.77;0.77;;;15.30;81.30;;;;;;5011241;28;20517;-72
2023/04/30 16:11:24;;;;;;;0.63;0.53;;;15.20;79.40;;;;;;5010282;28;20825;-73
2023/04/30 16:13:53;;;;;;;0.73;0.73;;;15.10;78.30;;;;;;5010869;28;20569;-72
2023/04/30 16:16:19;;;;;;;0.87;0.87;;;15.10;79.00;;;;;;5021995;28;20468;-71
2023/04/30 16:18:46;;;;;;;1.50;1.10;;;15.20;79.10;;;;;;5032677;28;20469;-72
2023/04/30 16:21:13;;;;;;;1.80;0.70;;;15.10;80.10;;;;;;5025146;28;20494;-72
2023/04/30 16:23:40;;;;;;;0.67;0.67;;;15.10;78.00;;;;;;5016235;28;20518;-73
2023/04/30 16:26:07;;;;;;;1.70;1.60;;;15.10;76.60;;;;;;5018581;28;20465;-73
2023/04/30 16:28:34;;;;;;;0.90;0.90;;;15.10;81.20;;;;;;5013433;28;20469;-73
2023/04/30 16:31:03;;;;;;;0.77;0.77;;;15.00;80.30;;;;;;5011605;28;20559;-73
2023/04/30 16:33:29;;;;;;;0.73;0.73;;;14.90;82.00;;;;;;5010334;28;20566;-73
2023/04/30 16:35:56;;;;;;;1.07;0.97;;;15.00;82.80;;;;;;5010267;28;20810;-73
2023/04/30 16:38:23;;;;;;;0.93;0.93;;;15.00;81.70;;;;;;5010806;28;20461;-73
2023/04/30 16:40:50;;;;;;;0.80;0.80;;;14.90;81.00;;;;;;5010981;28;20493;-73
2023/04/30 16:43:16;;;;;;;1.03;1.03;;;14.90;83.00;;;;;;5010981;28;20473;-72
2023/04/30 16:45:43;;;;;;;1.30;1.00;;;14.90;83.80;;;;;;5011329;28;20462;-70
2023/04/30 16:48:11;;;;;;;0.77;0.77;;;14.90;82.10;;;;;;5009952;28;20470;-70
2023/04/30 16:50:38;;;;;;;4.47;1.27;;;14.90;82.20;;;;;;5010191;28;20504;-70